FDX58 TJBQ-KMEM
Flight info
| Callsign | FDX58 |
|---|---|
| Flight time | N/A |
| Altitude | 34000 |
| Route | HARBG Y421 SUMAC Y280 JAYMC Q116 GOOGY DCT WASER VANZE3 |
| Aircraft | A306/H-SDE3FGHIRWY/LB1 |
Departure
| Time | 2026-04-29 02:22 |
|---|---|
| Airport | Rafael Hernández International Airport (TJBQ) |
Arrival
| Time | N/A |
|---|---|
| Airport | Memphis International Airport (KMEM) |
| Time | Latitude | Longitude | Altitude | Speed | Heading |
|---|---|---|---|---|---|
| 2026-04-29 00:31 | 18.49557 | -67.13320 | 230 ft | 0 kts | 344° |
| 2026-04-29 02:12 | 18.49557 | -67.13319 | 230 ft | 0 kts | 344° |
| 2026-04-29 02:12 | 18.49556 | -67.13319 | 230 ft | 1 kts | 343° |
| 2026-04-29 02:12 | 18.49542 | -67.13313 | 230 ft | 2 kts | 323° |
| 2026-04-29 02:13 | 18.49531 | -67.13302 | 230 ft | 2 kts | 307° |
| 2026-04-29 02:13 | 18.49523 | -67.13288 | 230 ft | 2 kts | 290° |
| 2026-04-29 02:13 | 18.49520 | -67.13273 | 230 ft | 2 kts | 274° |
| 2026-04-29 02:13 | 18.49521 | -67.13258 | 230 ft | 2 kts | 257° |
| 2026-04-29 02:14 | 18.49523 | -67.13250 | 230 ft | 0 kts | 251° |
| 2026-04-29 02:16 | 18.49516 | -67.13263 | 230 ft | 5 kts | 241° |
| 2026-04-29 02:17 | 18.49493 | -67.13323 | 230 ft | 12 kts | 250° |
| 2026-04-29 02:17 | 18.49456 | -67.13436 | 231 ft | 19 kts | 252° |
| 2026-04-29 02:17 | 18.49408 | -67.13597 | 230 ft | 25 kts | 253° |
| 2026-04-29 02:17 | 18.49355 | -67.13775 | 231 ft | 24 kts | 252° |
| 2026-04-29 02:18 | 18.49305 | -67.13940 | 235 ft | 22 kts | 252° |
| 2026-04-29 02:18 | 18.49258 | -67.14095 | 239 ft | 21 kts | 252° |
| 2026-04-29 02:18 | 18.49215 | -67.14240 | 241 ft | 20 kts | 253° |
| 2026-04-29 02:18 | 18.49173 | -67.14378 | 243 ft | 19 kts | 251° |
| 2026-04-29 02:19 | 18.49136 | -67.14498 | 246 ft | 9 kts | 253° |
| 2026-04-29 02:19 | 18.49116 | -67.14548 | 247 ft | 3 kts | 227° |
| 2026-04-29 02:19 | 18.49097 | -67.14560 | 247 ft | 3 kts | 198° |
| 2026-04-29 02:19 | 18.49055 | -67.14563 | 248 ft | 9 kts | 167° |
| 2026-04-29 02:20 | 18.49013 | -67.14518 | 248 ft | 9 kts | 87° |
| 2026-04-29 02:20 | 18.49017 | -67.14503 | 248 ft | 0 kts | 72° |
| 2026-04-29 02:21 | 18.49052 | -67.14386 | 246 ft | 42 kts | 72° |
| 2026-04-29 02:21 | 18.49218 | -67.13840 | 235 ft | 111 kts | 72° |
| 2026-04-29 02:22 | 18.49514 | -67.12860 | 228 ft | 169 kts | 72° |
| 2026-04-29 02:22 | 18.49908 | -67.11572 | 586 ft | 189 kts | 72° |
| 2026-04-29 02:22 | 18.50319 | -67.10245 | 1099 ft | 198 kts | 71° |
| 2026-04-29 02:22 | 18.50788 | -67.08903 | 1941 ft | 191 kts | 69° |
| 2026-04-29 02:23 | 18.51262 | -67.07549 | 2445 ft | 202 kts | 70° |
| 2026-04-29 02:23 | 18.51748 | -67.06149 | 3056 ft | 207 kts | 69° |
| 2026-04-29 02:23 | 18.52583 | -67.04919 | 3630 ft | 212 kts | 38° |
| 2026-04-29 02:23 | 18.53979 | -67.04372 | 4111 ft | 224 kts | 5° |
| 2026-04-29 02:24 | 18.55600 | -67.04703 | 4390 ft | 253 kts | 334° |
| 2026-04-29 02:24 | 18.56976 | -67.05949 | 4954 ft | 270 kts | 308° |
| 2026-04-29 02:24 | 18.57981 | -67.07657 | 5686 ft | 278 kts | 294° |
| 2026-04-29 02:25 | 18.57841 | -67.11666 | 7228 ft | 283 kts | 269° |
| 2026-04-29 02:25 | 18.58178 | -67.13676 | 7906 ft | 283 kts | 295° |
| 2026-04-29 02:25 | 18.59143 | -67.15488 | 8543 ft | 284 kts | 294° |
| 2026-04-29 02:25 | 18.59464 | -67.17521 | 9107 ft | 289 kts | 264° |
| 2026-04-29 02:26 | 18.59335 | -67.19634 | 9694 ft | 292 kts | 270° |
| 2026-04-29 02:26 | 18.59278 | -67.21783 | 10276 ft | 295 kts | 269° |
| 2026-04-29 02:26 | 18.58889 | -67.23896 | 10831 ft | 295 kts | 249° |
| 2026-04-29 02:26 | 18.58424 | -67.25985 | 11319 ft | 297 kts | 270° |
| 2026-04-29 02:27 | 18.58841 | -67.28120 | 11918 ft | 304 kts | 295° |
| 2026-04-29 02:27 | 18.59977 | -67.29997 | 12832 ft | 305 kts | 308° |
| 2026-04-29 02:27 | 18.61354 | -67.31692 | 13658 ft | 309 kts | 310° |
| 2026-04-29 02:27 | 18.62898 | -67.33274 | 14495 ft | 314 kts | 318° |
| 2026-04-29 02:28 | 18.64586 | -67.34773 | 15374 ft | 316 kts | 316° |
| 2026-04-29 02:28 | 18.65844 | -67.36618 | 16204 ft | 315 kts | 288° |
| 2026-04-29 02:28 | 18.66298 | -67.38846 | 17055 ft | 314 kts | 283° |
| 2026-04-29 02:28 | 18.66804 | -67.41099 | 17672 ft | 321 kts | 271° |
| 2026-04-29 02:29 | 18.66716 | -67.43441 | 18442 ft | 322 kts | 272° |
| 2026-04-29 02:29 | 18.67241 | -67.45731 | 19226 ft | 327 kts | 292° |
| 2026-04-29 02:29 | 18.68490 | -67.47773 | 20023 ft | 333 kts | 305° |
| 2026-04-29 02:29 | 18.70012 | -67.49640 | 20710 ft | 339 kts | 308° |
| 2026-04-29 02:30 | 18.71609 | -67.51485 | 21397 ft | 344 kts | 308° |
| 2026-04-29 02:30 | 18.73269 | -67.53360 | 22073 ft | 349 kts | 309° |
| 2026-04-29 02:30 | 18.74993 | -67.55136 | 22773 ft | 353 kts | 311° |
| 2026-04-29 02:30 | 18.76704 | -67.56987 | 23480 ft | 348 kts | 299° |
| 2026-04-29 02:31 | 18.77609 | -67.59271 | 24182 ft | 333 kts | 274° |
| 2026-04-29 02:31 | 18.77748 | -67.61704 | 24807 ft | 331 kts | 275° |
| 2026-04-29 02:31 | 18.78254 | -67.64082 | 25185 ft | 340 kts | 285° |
| 2026-04-29 02:31 | 18.79449 | -67.66333 | 25556 ft | 358 kts | 305° |
| 2026-04-29 02:32 | 18.81299 | -67.68173 | 25731 ft | 378 kts | 315° |
| 2026-04-29 02:32 | 18.83432 | -67.69916 | 25881 ft | 394 kts | 317° |
| 2026-04-29 02:32 | 18.85691 | -67.71705 | 26028 ft | 409 kts | 317° |
| 2026-04-29 02:32 | 18.88018 | -67.73525 | 26173 ft | 421 kts | 317° |
| 2026-04-29 02:33 | 18.90091 | -67.75678 | 26301 ft | 420 kts | 299° |
| 2026-04-29 02:33 | 18.91271 | -67.78500 | 26452 ft | 419 kts | 279° |
| 2026-04-29 02:33 | 18.91357 | -67.81570 | 26594 ft | 423 kts | 260° |
| 2026-04-29 02:33 | 18.90497 | -67.84551 | 26834 ft | 428 kts | 244° |
| 2026-04-29 02:34 | 18.89203 | -67.87410 | 27181 ft | 432 kts | 252° |
| 2026-04-29 02:34 | 18.88782 | -67.90553 | 27809 ft | 432 kts | 268° |
| 2026-04-29 02:34 | 18.89215 | -67.93680 | 28537 ft | 433 kts | 282° |
| 2026-04-29 02:34 | 18.90404 | -67.96582 | 29221 ft | 438 kts | 297° |
| 2026-04-29 02:35 | 18.92459 | -67.99009 | 29850 ft | 447 kts | 313° |
| 2026-04-29 02:35 | 18.94883 | -68.01032 | 30470 ft | 449 kts | 318° |
| 2026-04-29 02:35 | 18.97485 | -68.02910 | 31007 ft | 452 kts | 321° |
| 2026-04-29 02:35 | 19.00172 | -68.04647 | 31546 ft | 453 kts | 323° |
| 2026-04-29 02:36 | 19.02957 | -68.06261 | 32089 ft | 454 kts | 326° |
| 2026-04-29 02:36 | 19.05732 | -68.07816 | 32562 ft | 449 kts | 323° |
| 2026-04-29 02:36 | 19.08285 | -68.09645 | 32888 ft | 442 kts | 315° |
| 2026-04-29 02:36 | 19.10611 | -68.11762 | 33024 ft | 441 kts | 311° |
| 2026-04-29 02:37 | 19.12835 | -68.14012 | 33164 ft | 444 kts | 310° |
| 2026-04-29 02:37 | 19.15092 | -68.16302 | 33303 ft | 447 kts | 310° |
| 2026-04-29 02:37 | 19.17364 | -68.18536 | 33438 ft | 450 kts | 311° |
| 2026-04-29 02:37 | 19.19694 | -68.20782 | 33619 ft | 449 kts | 312° |
| 2026-04-29 02:38 | 19.22050 | -68.23041 | 33781 ft | 449 kts | 312° |
| 2026-04-29 02:38 | 19.24351 | -68.25255 | 33942 ft | 449 kts | 311° |
| 2026-04-29 02:38 | 19.26603 | -68.27525 | 33941 ft | 446 kts | 309° |
| 2026-04-29 02:39 | 19.30909 | -68.32254 | 33947 ft | 443 kts | 308° |
| 2026-04-29 02:39 | 19.35121 | -68.36977 | 33945 ft | 443 kts | 308° |
| 2026-04-29 02:40 | 19.39374 | -68.41711 | 33944 ft | 443 kts | 308° |
| 2026-04-29 02:40 | 19.43630 | -68.46448 | 33943 ft | 444 kts | 308° |
| 2026-04-29 02:41 | 19.47852 | -68.51169 | 33941 ft | 442 kts | 308° |
| 2026-04-29 02:41 | 19.52099 | -68.55898 | 33939 ft | 442 kts | 308° |
| 2026-04-29 02:42 | 19.56325 | -68.60617 | 33938 ft | 443 kts | 308° |
| 2026-04-29 02:42 | 19.60562 | -68.65358 | 33937 ft | 443 kts | 308° |
| 2026-04-29 02:43 | 19.64778 | -68.70073 | 33961 ft | 443 kts | 308° |
| 2026-04-29 02:43 | 19.69000 | -68.74801 | 33961 ft | 440 kts | 308° |
| 2026-04-29 02:44 | 19.73207 | -68.79515 | 33962 ft | 441 kts | 308° |
| 2026-04-29 02:44 | 19.77450 | -68.84274 | 33961 ft | 441 kts | 308° |
| 2026-04-29 02:45 | 19.81671 | -68.89015 | 33959 ft | 441 kts | 308° |
| 2026-04-29 02:45 | 19.85899 | -68.93762 | 33960 ft | 442 kts | 308° |
| 2026-04-29 02:46 | 19.90008 | -68.98616 | 33958 ft | 441 kts | 306° |
| 2026-04-29 02:46 | 19.94041 | -69.03480 | 33958 ft | 441 kts | 306° |
| 2026-04-29 02:47 | 19.98117 | -69.08366 | 33957 ft | 439 kts | 306° |
| 2026-04-29 02:47 | 20.02172 | -69.13220 | 33957 ft | 440 kts | 306° |
| 2026-04-29 02:48 | 20.06224 | -69.18085 | 33958 ft | 441 kts | 306° |
| 2026-04-29 02:48 | 20.10293 | -69.22968 | 33959 ft | 440 kts | 306° |
| 2026-04-29 02:49 | 20.14338 | -69.27836 | 33952 ft | 441 kts | 306° |
| 2026-04-29 02:49 | 20.18395 | -69.32709 | 33956 ft | 440 kts | 306° |
| 2026-04-29 02:50 | 20.22443 | -69.37586 | 33963 ft | 440 kts | 306° |
| 2026-04-29 02:50 | 20.26503 | -69.42480 | 33962 ft | 440 kts | 306° |
| 2026-04-29 02:51 | 20.30575 | -69.47395 | 33962 ft | 440 kts | 306° |
| 2026-04-29 02:51 | 20.34627 | -69.52279 | 33960 ft | 441 kts | 306° |
| 2026-04-29 02:52 | 20.38672 | -69.57169 | 33959 ft | 440 kts | 306° |
| 2026-04-29 02:52 | 20.42753 | -69.62101 | 33959 ft | 441 kts | 306° |
| 2026-04-29 02:53 | 20.46670 | -69.66840 | 33976 ft | 441 kts | 305° |
| 2026-04-29 02:53 | 20.50721 | -69.71748 | 33982 ft | 441 kts | 305° |
| 2026-04-29 02:54 | 20.54746 | -69.76627 | 33984 ft | 442 kts | 305° |
| 2026-04-29 02:54 | 20.58806 | -69.81556 | 33983 ft | 442 kts | 305° |
| 2026-04-29 02:55 | 20.62845 | -69.86462 | 33982 ft | 440 kts | 305° |
| 2026-04-29 02:55 | 20.66894 | -69.91380 | 33982 ft | 439 kts | 305° |
| 2026-04-29 02:56 | 20.70916 | -69.96272 | 33979 ft | 440 kts | 305° |
| 2026-04-29 02:56 | 20.74965 | -70.01212 | 33979 ft | 439 kts | 305° |
| 2026-04-29 02:57 | 20.78988 | -70.06108 | 33981 ft | 440 kts | 305° |
| 2026-04-29 02:57 | 20.83032 | -70.11035 | 33979 ft | 441 kts | 305° |
| 2026-04-29 02:58 | 20.87090 | -70.15987 | 33980 ft | 443 kts | 305° |
| 2026-04-29 02:58 | 20.91135 | -70.20939 | 33981 ft | 442 kts | 305° |
| 2026-04-29 02:59 | 20.95163 | -70.25861 | 33979 ft | 440 kts | 305° |
| 2026-04-29 02:59 | 20.99197 | -70.30806 | 33975 ft | 440 kts | 305° |
| 2026-04-29 03:00 | 21.03208 | -70.35717 | 33971 ft | 439 kts | 305° |
| 2026-04-29 03:00 | 21.07244 | -70.40665 | 33969 ft | 440 kts | 305° |
| 2026-04-29 03:01 | 21.11269 | -70.45606 | 33963 ft | 441 kts | 305° |
| 2026-04-29 03:01 | 21.15269 | -70.50514 | 33962 ft | 438 kts | 305° |
| 2026-04-29 03:02 | 21.19265 | -70.55429 | 33960 ft | 437 kts | 305° |
| 2026-04-29 03:02 | 21.23282 | -70.60377 | 33959 ft | 439 kts | 304° |
| 2026-04-29 03:03 | 21.27247 | -70.65260 | 33961 ft | 438 kts | 304° |
| 2026-04-29 03:03 | 21.31288 | -70.70240 | 33995 ft | 438 kts | 304° |
| 2026-04-29 03:04 | 21.35284 | -70.75169 | 34002 ft | 439 kts | 304° |
| 2026-04-29 03:04 | 21.39289 | -70.80123 | 34002 ft | 438 kts | 304° |
| 2026-04-29 03:05 | 21.43274 | -70.85043 | 34002 ft | 438 kts | 304° |
| 2026-04-29 03:05 | 21.47247 | -70.89965 | 34001 ft | 438 kts | 304° |
| 2026-04-29 03:06 | 21.51257 | -70.94930 | 33997 ft | 438 kts | 304° |
| 2026-04-29 03:06 | 21.55251 | -70.99882 | 33998 ft | 439 kts | 304° |
| 2026-04-29 03:07 | 21.59030 | -71.04958 | 34000 ft | 433 kts | 298° |
| 2026-04-29 03:07 | 21.62288 | -71.10371 | 33985 ft | 430 kts | 297° |
| 2026-04-29 03:08 | 21.65560 | -71.15753 | 33973 ft | 430 kts | 298° |
| 2026-04-29 03:08 | 21.68881 | -71.21135 | 33972 ft | 433 kts | 298° |
| 2026-04-29 03:09 | 21.72186 | -71.26505 | 33971 ft | 433 kts | 298° |
| 2026-04-29 03:09 | 21.75503 | -71.31911 | 33968 ft | 431 kts | 298° |
| 2026-04-29 03:10 | 21.78803 | -71.37292 | 33968 ft | 432 kts | 298° |
| 2026-04-29 03:10 | 21.82097 | -71.42662 | 33967 ft | 432 kts | 298° |
| 2026-04-29 03:11 | 21.85394 | -71.48053 | 33967 ft | 432 kts | 298° |
| 2026-04-29 03:11 | 21.88708 | -71.53470 | 33964 ft | 432 kts | 298° |
| 2026-04-29 03:12 | 21.91984 | -71.58835 | 33961 ft | 433 kts | 298° |
| 2026-04-29 03:12 | 21.95303 | -71.64275 | 33960 ft | 431 kts | 298° |
| 2026-04-29 03:13 | 21.98581 | -71.69654 | 33987 ft | 432 kts | 298° |
| 2026-04-29 03:13 | 22.01878 | -71.75064 | 33988 ft | 431 kts | 298° |
| 2026-04-29 03:14 | 22.05160 | -71.80456 | 33987 ft | 431 kts | 298° |
| 2026-04-29 03:14 | 22.08462 | -71.85879 | 33983 ft | 431 kts | 298° |
| 2026-04-29 03:15 | 22.11749 | -71.91299 | 33978 ft | 432 kts | 298° |
| 2026-04-29 03:15 | 22.15024 | -71.96700 | 33983 ft | 433 kts | 298° |
| 2026-04-29 03:16 | 22.18340 | -72.02169 | 33978 ft | 433 kts | 298° |
| 2026-04-29 03:16 | 22.21624 | -72.07591 | 33980 ft | 432 kts | 298° |
| 2026-04-29 03:17 | 22.24906 | -72.13020 | 33974 ft | 432 kts | 299° |
| 2026-04-29 03:17 | 22.28184 | -72.18451 | 33974 ft | 432 kts | 298° |
| 2026-04-29 03:18 | 22.31445 | -72.23848 | 33980 ft | 432 kts | 299° |
| 2026-04-29 03:18 | 22.34730 | -72.29293 | 33982 ft | 431 kts | 298° |
| 2026-04-29 03:19 | 22.38008 | -72.34734 | 33986 ft | 432 kts | 299° |
| 2026-04-29 03:19 | 22.41278 | -72.40173 | 33990 ft | 431 kts | 299° |
| 2026-04-29 03:20 | 22.44543 | -72.45604 | 33983 ft | 432 kts | 299° |
| 2026-04-29 03:20 | 22.47800 | -72.51030 | 33979 ft | 431 kts | 299° |
| 2026-04-29 03:21 | 22.51070 | -72.56484 | 33981 ft | 431 kts | 299° |
| 2026-04-29 03:21 | 22.54327 | -72.61918 | 33979 ft | 431 kts | 299° |
| 2026-04-29 03:22 | 22.57591 | -72.67366 | 33998 ft | 432 kts | 299° |
| 2026-04-29 03:22 | 22.60852 | -72.72816 | 34004 ft | 432 kts | 298° |
| 2026-04-29 03:23 | 22.64093 | -72.78243 | 34002 ft | 432 kts | 299° |
| 2026-04-29 03:23 | 22.67364 | -72.83723 | 34004 ft | 433 kts | 298° |
| 2026-04-29 03:24 | 22.70612 | -72.89171 | 34002 ft | 432 kts | 299° |
| 2026-04-29 03:24 | 22.73859 | -72.94629 | 34000 ft | 431 kts | 299° |
| 2026-04-29 03:25 | 22.77106 | -73.00092 | 34001 ft | 431 kts | 299° |
| 2026-04-29 03:25 | 22.80353 | -73.05543 | 33994 ft | 429 kts | 299° |
| 2026-04-29 03:26 | 22.83577 | -73.10979 | 33993 ft | 431 kts | 299° |
| 2026-04-29 03:26 | 22.86822 | -73.16449 | 33993 ft | 432 kts | 299° |
| 2026-04-29 03:27 | 22.90079 | -73.21944 | 33994 ft | 432 kts | 299° |
| 2026-04-29 03:27 | 22.93314 | -73.27422 | 33988 ft | 431 kts | 299° |
| 2026-04-29 03:28 | 22.96542 | -73.32879 | 33988 ft | 431 kts | 299° |
| 2026-04-29 03:28 | 22.99770 | -73.38339 | 33995 ft | 431 kts | 299° |
| 2026-04-29 03:29 | 23.03023 | -73.43851 | 33985 ft | 431 kts | 299° |
| 2026-04-29 03:29 | 23.05912 | -73.48753 | 33987 ft | 432 kts | 299° |
| 2026-04-29 03:30 | 23.09135 | -73.54230 | 33984 ft | 432 kts | 299° |
| 2026-04-29 03:30 | 23.12369 | -73.59727 | 33990 ft | 432 kts | 299° |
| 2026-04-29 03:31 | 23.17207 | -73.67968 | 34003 ft | 432 kts | 299° |
| 2026-04-29 03:31 | 23.20425 | -73.73461 | 34006 ft | 431 kts | 299° |
| 2026-04-29 03:32 | 23.23657 | -73.78971 | 34005 ft | 431 kts | 299° |
| 2026-04-29 03:32 | 23.26885 | -73.84486 | 34008 ft | 432 kts | 299° |
| 2026-04-29 03:33 | 23.30104 | -73.89990 | 33998 ft | 432 kts | 299° |
| 2026-04-29 03:33 | 23.33313 | -73.95485 | 34002 ft | 433 kts | 299° |
| 2026-04-29 03:34 | 23.36547 | -74.01030 | 34000 ft | 432 kts | 299° |
| 2026-04-29 03:34 | 23.39760 | -74.06546 | 34002 ft | 433 kts | 299° |
| 2026-04-29 03:35 | 23.42992 | -74.12094 | 33994 ft | 433 kts | 299° |
| 2026-04-29 03:35 | 23.46191 | -74.17598 | 33988 ft | 432 kts | 299° |
| 2026-04-29 03:36 | 23.49407 | -74.23132 | 34002 ft | 433 kts | 299° |
| 2026-04-29 03:36 | 23.52623 | -74.28675 | 33995 ft | 433 kts | 299° |
| 2026-04-29 03:37 | 23.55846 | -74.34236 | 33988 ft | 433 kts | 299° |
| 2026-04-29 03:37 | 23.59050 | -74.39772 | 33989 ft | 433 kts | 299° |
| 2026-04-29 03:38 | 23.62266 | -74.45332 | 33990 ft | 433 kts | 299° |
| 2026-04-29 03:38 | 23.65481 | -74.50899 | 33988 ft | 433 kts | 300° |
| 2026-04-29 03:39 | 23.68685 | -74.56449 | 33988 ft | 434 kts | 300° |
| 2026-04-29 03:39 | 23.71881 | -74.61996 | 33980 ft | 433 kts | 299° |
| 2026-04-29 03:40 | 23.75102 | -74.67593 | 33999 ft | 434 kts | 299° |
| 2026-04-29 03:40 | 23.78299 | -74.73151 | 34004 ft | 434 kts | 299° |
| 2026-04-29 03:41 | 23.81516 | -74.78749 | 34003 ft | 434 kts | 299° |
| 2026-04-29 03:41 | 23.84707 | -74.84311 | 34003 ft | 434 kts | 299° |
| 2026-04-29 03:42 | 23.87913 | -74.89907 | 34001 ft | 435 kts | 299° |
| 2026-04-29 03:42 | 23.91114 | -74.95496 | 33995 ft | 435 kts | 300° |
| 2026-04-29 03:43 | 23.94337 | -75.01127 | 33994 ft | 435 kts | 300° |
| 2026-04-29 03:43 | 23.97513 | -75.06690 | 33996 ft | 434 kts | 299° |
| 2026-04-29 03:44 | 24.00710 | -75.12289 | 34001 ft | 434 kts | 299° |
| 2026-04-29 03:44 | 24.03907 | -75.17905 | 33997 ft | 434 kts | 300° |
| 2026-04-29 03:45 | 24.07110 | -75.23529 | 33996 ft | 436 kts | 300° |
| 2026-04-29 03:45 | 24.10309 | -75.29158 | 33997 ft | 436 kts | 300° |
| 2026-04-29 03:46 | 24.13518 | -75.34805 | 33994 ft | 437 kts | 300° |
| 2026-04-29 03:46 | 24.16745 | -75.40494 | 33995 ft | 437 kts | 300° |
| 2026-04-29 03:47 | 24.19948 | -75.46143 | 33991 ft | 437 kts | 300° |
| 2026-04-29 03:47 | 24.23134 | -75.51775 | 33996 ft | 438 kts | 300° |
| 2026-04-29 03:48 | 24.26339 | -75.57442 | 33989 ft | 438 kts | 300° |
| 2026-04-29 03:48 | 24.29548 | -75.63122 | 33992 ft | 438 kts | 300° |
| 2026-04-29 03:49 | 24.32754 | -75.68806 | 34006 ft | 437 kts | 299° |
| 2026-04-29 03:49 | 24.35933 | -75.74453 | 34008 ft | 436 kts | 299° |
| 2026-04-29 03:50 | 24.39112 | -75.80102 | 34014 ft | 436 kts | 300° |
| 2026-04-29 03:50 | 24.42319 | -75.85810 | 34020 ft | 438 kts | 300° |
| 2026-04-29 03:51 | 24.45500 | -75.91474 | 34020 ft | 438 kts | 300° |
| 2026-04-29 03:51 | 24.48698 | -75.97171 | 34018 ft | 438 kts | 300° |
| 2026-04-29 03:52 | 24.51892 | -76.02872 | 34019 ft | 439 kts | 300° |
| 2026-04-29 03:52 | 24.55063 | -76.08546 | 34019 ft | 438 kts | 300° |
| 2026-04-29 03:53 | 24.58235 | -76.14257 | 34014 ft | 439 kts | 300° |
| 2026-04-29 03:53 | 24.61501 | -76.19959 | 34018 ft | 439 kts | 301° |
| 2026-04-29 03:54 | 24.64845 | -76.25551 | 34014 ft | 439 kts | 302° |
| 2026-04-29 03:54 | 24.68194 | -76.31166 | 34013 ft | 439 kts | 301° |
| 2026-04-29 03:55 | 24.71540 | -76.36800 | 34008 ft | 440 kts | 301° |
| 2026-04-29 03:55 | 24.74881 | -76.42433 | 34007 ft | 440 kts | 302° |
| 2026-04-29 03:56 | 24.78211 | -76.48041 | 34008 ft | 439 kts | 302° |
| 2026-04-29 03:56 | 24.81541 | -76.53666 | 34009 ft | 439 kts | 302° |
| 2026-04-29 03:57 | 24.84868 | -76.59287 | 34007 ft | 439 kts | 302° |
| 2026-04-29 03:57 | 24.88211 | -76.64949 | 34005 ft | 440 kts | 302° |
| 2026-04-29 03:58 | 24.91539 | -76.70590 | 34020 ft | 439 kts | 301° |
| 2026-04-29 03:58 | 24.94861 | -76.76230 | 34023 ft | 439 kts | 301° |
| 2026-04-29 03:59 | 24.98174 | -76.81849 | 34021 ft | 439 kts | 302° |
| 2026-04-29 03:59 | 25.01489 | -76.87490 | 34026 ft | 439 kts | 302° |
| 2026-04-29 04:00 | 25.04811 | -76.93143 | 34020 ft | 440 kts | 301° |
| 2026-04-29 04:00 | 25.08112 | -76.98762 | 34021 ft | 437 kts | 301° |
| 2026-04-29 04:01 | 25.11422 | -77.04420 | 34022 ft | 439 kts | 302° |
| 2026-04-29 04:01 | 25.14752 | -77.10109 | 34019 ft | 439 kts | 302° |
| 2026-04-29 04:02 | 25.18055 | -77.15756 | 34022 ft | 439 kts | 302° |
| 2026-04-29 04:02 | 25.21349 | -77.21398 | 34022 ft | 439 kts | 302° |
| 2026-04-29 04:03 | 25.24675 | -77.27100 | 34017 ft | 439 kts | 302° |
| 2026-04-29 04:03 | 25.27967 | -77.32755 | 34015 ft | 439 kts | 302° |
| 2026-04-29 04:04 | 25.30640 | -77.38776 | 34015 ft | 438 kts | 290° |
| 2026-04-29 04:04 | 25.32579 | -77.45156 | 34004 ft | 440 kts | 289° |
| 2026-04-29 04:05 | 25.34625 | -77.51540 | 34000 ft | 439 kts | 290° |
| 2026-04-29 04:05 | 25.36707 | -77.57907 | 34001 ft | 440 kts | 290° |
| 2026-04-29 04:06 | 25.38762 | -77.64246 | 33992 ft | 440 kts | 290° |
| 2026-04-29 04:06 | 25.40831 | -77.70634 | 34001 ft | 439 kts | 290° |
| 2026-04-29 04:07 | 25.42859 | -77.76973 | 34002 ft | 440 kts | 288° |
| 2026-04-29 04:07 | 25.44567 | -77.83495 | 34004 ft | 439 kts | 285° |
| 2026-04-29 04:08 | 25.46164 | -77.90004 | 33997 ft | 439 kts | 286° |
| 2026-04-29 04:08 | 25.47796 | -77.96506 | 33998 ft | 442 kts | 286° |
| 2026-04-29 04:09 | 25.49434 | -78.03053 | 33994 ft | 440 kts | 286° |
| 2026-04-29 04:09 | 25.51065 | -78.09589 | 33999 ft | 442 kts | 286° |
| 2026-04-29 04:10 | 25.52693 | -78.16122 | 33996 ft | 441 kts | 286° |
| 2026-04-29 04:10 | 25.54324 | -78.22677 | 33996 ft | 441 kts | 286° |
| 2026-04-29 04:11 | 25.55947 | -78.29205 | 33992 ft | 440 kts | 286° |
| 2026-04-29 04:11 | 25.57563 | -78.35725 | 33991 ft | 440 kts | 286° |
| 2026-04-29 04:12 | 25.59175 | -78.42252 | 33989 ft | 442 kts | 286° |
| 2026-04-29 04:12 | 25.60794 | -78.48814 | 33994 ft | 442 kts | 287° |
| 2026-04-29 04:13 | 25.62402 | -78.55357 | 33990 ft | 441 kts | 287° |
| 2026-04-29 04:13 | 25.64004 | -78.61875 | 33992 ft | 441 kts | 286° |
| 2026-04-29 04:14 | 25.65615 | -78.68446 | 33994 ft | 441 kts | 286° |
| 2026-04-29 04:14 | 25.67228 | -78.75032 | 33999 ft | 441 kts | 286° |
| 2026-04-29 04:15 | 25.68824 | -78.81565 | 33996 ft | 442 kts | 286° |
| 2026-04-29 04:15 | 25.70416 | -78.88101 | 34003 ft | 441 kts | 286° |
| 2026-04-29 04:16 | 25.72015 | -78.94692 | 34003 ft | 442 kts | 286° |
| 2026-04-29 04:16 | 25.73605 | -79.01246 | 33995 ft | 441 kts | 286° |
| 2026-04-29 04:17 | 25.75201 | -79.07838 | 33990 ft | 442 kts | 286° |
| 2026-04-29 04:17 | 25.76784 | -79.14385 | 33997 ft | 442 kts | 287° |
| 2026-04-29 04:18 | 25.78375 | -79.20988 | 33988 ft | 441 kts | 287° |
| 2026-04-29 04:18 | 25.79955 | -79.27541 | 33986 ft | 442 kts | 287° |
| 2026-04-29 04:19 | 25.81540 | -79.34152 | 33987 ft | 442 kts | 287° |
| 2026-04-29 04:19 | 25.83111 | -79.40712 | 33983 ft | 442 kts | 287° |
| 2026-04-29 04:20 | 25.84683 | -79.47294 | 33990 ft | 443 kts | 287° |
| 2026-04-29 04:20 | 25.86267 | -79.53930 | 33985 ft | 442 kts | 287° |
| 2026-04-29 04:21 | 25.87834 | -79.60529 | 33980 ft | 442 kts | 287° |
| 2026-04-29 04:21 | 25.89398 | -79.67121 | 33988 ft | 443 kts | 287° |
| 2026-04-29 04:22 | 25.90967 | -79.73729 | 33994 ft | 446 kts | 287° |
| 2026-04-29 04:22 | 25.92698 | -79.80282 | 33985 ft | 445 kts | 295° |
| 2026-04-29 04:23 | 25.95846 | -79.86176 | 33997 ft | 443 kts | 305° |
| 2026-04-29 04:23 | 25.99212 | -79.91900 | 34004 ft | 443 kts | 303° |
| 2026-04-29 04:24 | 26.02471 | -79.97728 | 33996 ft | 444 kts | 303° |
| 2026-04-29 04:24 | 26.05720 | -80.03552 | 34016 ft | 444 kts | 303° |
| 2026-04-29 04:25 | 26.09013 | -80.09444 | 34007 ft | 444 kts | 303° |
| 2026-04-29 04:25 | 26.12214 | -80.15179 | 34017 ft | 444 kts | 303° |
| 2026-04-29 04:26 | 26.15553 | -80.20999 | 34019 ft | 443 kts | 307° |
| 2026-04-29 04:26 | 26.19360 | -80.26357 | 34020 ft | 442 kts | 311° |
| 2026-04-29 04:27 | 26.23313 | -80.31750 | 34020 ft | 442 kts | 310° |
| 2026-04-29 04:27 | 26.27145 | -80.37085 | 34013 ft | 442 kts | 310° |
| 2026-04-29 04:28 | 26.30988 | -80.42435 | 34023 ft | 442 kts | 311° |
| 2026-04-29 04:28 | 26.34862 | -80.47823 | 33998 ft | 444 kts | 311° |
| 2026-04-29 04:29 | 26.38709 | -80.53179 | 33999 ft | 442 kts | 310° |
| 2026-04-29 04:29 | 26.42548 | -80.58543 | 34006 ft | 442 kts | 311° |
| 2026-04-29 04:30 | 26.46358 | -80.63881 | 34002 ft | 442 kts | 311° |
| 2026-04-29 04:31 | 26.52102 | -80.71915 | 33999 ft | 442 kts | 311° |
| 2026-04-29 04:31 | 26.55948 | -80.77303 | 34003 ft | 443 kts | 311° |
| 2026-04-29 04:32 | 26.59759 | -80.82654 | 33999 ft | 443 kts | 311° |
| 2026-04-29 04:32 | 26.63604 | -80.88055 | 34000 ft | 443 kts | 311° |
| 2026-04-29 04:33 | 26.67446 | -80.93461 | 33994 ft | 442 kts | 311° |
| 2026-04-29 04:33 | 26.71264 | -80.98834 | 34006 ft | 441 kts | 311° |
| 2026-04-29 04:34 | 26.75080 | -81.04223 | 33998 ft | 442 kts | 311° |
| 2026-04-29 04:34 | 26.78903 | -81.09618 | 33995 ft | 441 kts | 311° |
| 2026-04-29 04:35 | 26.82719 | -81.15014 | 34001 ft | 442 kts | 311° |
| 2026-04-29 04:35 | 26.86548 | -81.20427 | 34002 ft | 442 kts | 311° |
| 2026-04-29 04:36 | 26.90379 | -81.25864 | 33995 ft | 441 kts | 311° |
| 2026-04-29 04:36 | 26.94205 | -81.31278 | 33994 ft | 441 kts | 311° |
| 2026-04-29 04:37 | 26.98082 | -81.36652 | 33981 ft | 438 kts | 318° |
| 2026-04-29 04:37 | 27.00477 | -81.38744 | 34021 ft | 434 kts | 329° |
| 2026-04-29 04:37 | 27.03111 | -81.40437 | 33989 ft | 434 kts | 333° |
| 2026-04-29 04:38 | 27.08462 | -81.43759 | 33992 ft | 435 kts | 332° |
| 2026-04-29 04:38 | 27.13634 | -81.47200 | 34005 ft | 435 kts | 331° |
| 2026-04-29 04:39 | 27.18890 | -81.50709 | 34006 ft | 435 kts | 331° |
| 2026-04-29 04:39 | 27.24132 | -81.54206 | 34006 ft | 434 kts | 331° |
| 2026-04-29 04:40 | 27.29317 | -81.57671 | 34009 ft | 434 kts | 331° |
| 2026-04-29 04:40 | 27.34565 | -81.61172 | 34001 ft | 435 kts | 330° |
| 2026-04-29 04:41 | 27.39761 | -81.64654 | 34005 ft | 435 kts | 330° |
| 2026-04-29 04:41 | 27.45015 | -81.68181 | 34007 ft | 436 kts | 330° |
| 2026-04-29 04:42 | 27.50240 | -81.71680 | 34006 ft | 435 kts | 330° |
| 2026-04-29 04:42 | 27.55473 | -81.75197 | 34004 ft | 437 kts | 330° |
| 2026-04-29 04:43 | 27.60693 | -81.78709 | 34004 ft | 437 kts | 330° |
| 2026-04-29 04:43 | 27.65946 | -81.82257 | 34005 ft | 437 kts | 330° |
| 2026-04-29 04:44 | 27.71147 | -81.85759 | 33999 ft | 437 kts | 330° |
| 2026-04-29 04:44 | 27.76390 | -81.89294 | 34006 ft | 438 kts | 330° |
| 2026-04-29 04:45 | 27.81642 | -81.92841 | 34015 ft | 438 kts | 330° |
| 2026-04-29 04:45 | 27.86906 | -81.96406 | 34015 ft | 439 kts | 330° |
| 2026-04-29 04:46 | 27.92182 | -81.99976 | 34020 ft | 440 kts | 330° |
| 2026-04-29 04:46 | 27.97426 | -82.03527 | 34018 ft | 437 kts | 330° |
| 2026-04-29 04:47 | 28.02721 | -82.07121 | 34012 ft | 439 kts | 329° |
| 2026-04-29 04:47 | 28.07966 | -82.10697 | 34011 ft | 440 kts | 328° |
| 2026-04-29 04:48 | 28.12816 | -82.14462 | 34019 ft | 440 kts | 325° |
| 2026-04-29 04:48 | 28.17852 | -82.18528 | 34019 ft | 440 kts | 325° |
| 2026-04-29 04:49 | 28.22906 | -82.22566 | 34012 ft | 440 kts | 326° |
| 2026-04-29 04:49 | 28.27953 | -82.26601 | 34004 ft | 438 kts | 326° |
| 2026-04-29 04:50 | 28.32959 | -82.30602 | 34012 ft | 439 kts | 326° |
| 2026-04-29 04:50 | 28.37973 | -82.34613 | 34007 ft | 439 kts | 325° |
| 2026-04-29 04:51 | 28.42960 | -82.38609 | 34009 ft | 439 kts | 325° |
| 2026-04-29 04:51 | 28.47921 | -82.42596 | 34009 ft | 439 kts | 325° |
| 2026-04-29 04:52 | 28.52891 | -82.46595 | 34011 ft | 439 kts | 325° |
| 2026-04-29 04:52 | 28.57908 | -82.50629 | 34005 ft | 437 kts | 325° |
| 2026-04-29 04:53 | 28.62903 | -82.54652 | 34000 ft | 439 kts | 325° |
| 2026-04-29 04:53 | 28.67912 | -82.58689 | 33994 ft | 439 kts | 325° |
| 2026-04-29 04:54 | 28.72874 | -82.62697 | 33993 ft | 438 kts | 325° |
| 2026-04-29 04:54 | 28.77888 | -82.66755 | 33999 ft | 438 kts | 324° |
| 2026-04-29 04:55 | 28.82881 | -82.70794 | 34003 ft | 437 kts | 324° |
| 2026-04-29 04:55 | 28.87834 | -82.74807 | 34003 ft | 438 kts | 324° |
| 2026-04-29 04:56 | 28.92830 | -82.78863 | 33997 ft | 438 kts | 324° |
| 2026-04-29 04:56 | 28.97781 | -82.82883 | 33995 ft | 438 kts | 324° |
| 2026-04-29 04:57 | 29.02763 | -82.86933 | 33993 ft | 437 kts | 324° |
| 2026-04-29 04:57 | 29.07734 | -82.91000 | 33991 ft | 438 kts | 324° |
| 2026-04-29 04:58 | 29.12520 | -82.94926 | 34005 ft | 437 kts | 324° |
| 2026-04-29 04:58 | 29.17494 | -82.98986 | 33995 ft | 436 kts | 324° |
| 2026-04-29 04:59 | 29.22478 | -83.03055 | 34009 ft | 440 kts | 324° |
| 2026-04-29 04:59 | 29.27428 | -83.07110 | 34001 ft | 439 kts | 323° |
| 2026-04-29 05:00 | 29.32424 | -83.11212 | 33994 ft | 439 kts | 324° |
| 2026-04-29 05:00 | 29.37404 | -83.15298 | 33990 ft | 439 kts | 324° |
| 2026-04-29 05:01 | 29.42385 | -83.19385 | 33990 ft | 438 kts | 324° |
| 2026-04-29 05:01 | 29.47349 | -83.23468 | 33988 ft | 438 kts | 323° |
| 2026-04-29 05:02 | 29.52341 | -83.27576 | 33985 ft | 440 kts | 324° |
| 2026-04-29 05:02 | 29.57346 | -83.31707 | 33988 ft | 441 kts | 323° |
| 2026-04-29 05:03 | 29.62366 | -83.35848 | 33977 ft | 441 kts | 323° |
| 2026-04-29 05:03 | 29.67365 | -83.39980 | 33976 ft | 441 kts | 323° |
| 2026-04-29 05:04 | 29.72406 | -83.44153 | 33986 ft | 440 kts | 323° |
| 2026-04-29 05:04 | 29.77382 | -83.48268 | 33965 ft | 441 kts | 323° |
| 2026-04-29 05:05 | 29.82381 | -83.52413 | 33966 ft | 441 kts | 323° |
| 2026-04-29 05:05 | 29.87384 | -83.56584 | 33957 ft | 441 kts | 323° |
| 2026-04-29 05:06 | 29.92377 | -83.60754 | 33967 ft | 440 kts | 323° |
| 2026-04-29 05:06 | 29.97374 | -83.64915 | 33969 ft | 442 kts | 323° |
| 2026-04-29 05:07 | 30.02322 | -83.69032 | 33976 ft | 444 kts | 323° |
| 2026-04-29 05:07 | 30.07365 | -83.73234 | 33980 ft | 443 kts | 322° |
| 2026-04-29 05:08 | 30.12205 | -83.77277 | 33983 ft | 443 kts | 322° |
| 2026-04-29 05:08 | 30.17222 | -83.81474 | 33991 ft | 443 kts | 322° |
| 2026-04-29 05:09 | 30.22161 | -83.85628 | 33985 ft | 442 kts | 322° |
| 2026-04-29 05:09 | 30.27140 | -83.89808 | 33984 ft | 443 kts | 322° |
| 2026-04-29 05:10 | 30.32165 | -83.94026 | 33983 ft | 443 kts | 322° |
| 2026-04-29 05:10 | 30.37160 | -83.98233 | 33979 ft | 443 kts | 322° |
| 2026-04-29 05:11 | 30.42171 | -84.02445 | 33982 ft | 446 kts | 322° |
| 2026-04-29 05:11 | 30.47158 | -84.06660 | 33978 ft | 448 kts | 322° |
| 2026-04-29 05:12 | 30.52253 | -84.10962 | 33974 ft | 446 kts | 322° |
| 2026-04-29 05:12 | 30.57254 | -84.15197 | 33975 ft | 445 kts | 322° |
| 2026-04-29 05:13 | 30.62279 | -84.19444 | 33966 ft | 447 kts | 321° |
| 2026-04-29 05:13 | 30.67315 | -84.23722 | 33980 ft | 447 kts | 321° |
| 2026-04-29 05:14 | 30.72396 | -84.28036 | 33966 ft | 449 kts | 321° |
| 2026-04-29 05:14 | 30.77482 | -84.32355 | 33965 ft | 449 kts | 321° |
| 2026-04-29 05:15 | 30.82505 | -84.36641 | 33967 ft | 448 kts | 321° |
| 2026-04-29 05:15 | 30.87534 | -84.40930 | 33966 ft | 449 kts | 321° |
| 2026-04-29 05:16 | 30.92618 | -84.45267 | 33970 ft | 450 kts | 321° |
| 2026-04-29 05:16 | 30.97717 | -84.49625 | 33980 ft | 451 kts | 321° |
| 2026-04-29 05:17 | 31.02795 | -84.53969 | 33969 ft | 450 kts | 321° |